createdAt,value
2023-09-22T00:00:12.836Z,99.57
2023-09-22T00:02:41.236Z,99.68
2023-09-22T00:05:09.542Z,99.74
2023-09-22T00:07:36.373Z,99.55
2023-09-22T00:10:03.433Z,99.89
2023-09-22T00:12:30.715Z,99.87
2023-09-22T00:14:58.736Z,99.51
2023-09-22T00:17:26.653Z,99.89
2023-09-22T00:19:53.528Z,99.62
2023-09-22T00:22:20.274Z,99.23
2023-09-22T00:24:47.236Z,99.24
2023-09-22T00:27:17.372Z,98.77
2023-09-22T00:29:44.376Z,98.89
2023-09-22T00:32:13.217Z,98.80
2023-09-22T00:34:40.621Z,98.79
2023-09-22T00:37:08.548Z,98.79
2023-09-22T00:39:35.412Z,98.52
2023-09-22T00:42:03.474Z,98.52
2023-09-22T00:44:31.129Z,98.46
2023-09-22T00:46:59.645Z,98.17
2023-09-22T00:49:26.744Z,97.43
2023-09-22T00:51:53.915Z,97.46
2023-09-22T00:54:21.259Z,97.65
2023-09-22T00:56:48.547Z,97.39
2023-09-22T00:59:17.227Z,97.55
2023-09-22T01:01:44.509Z,97.07
2023-09-22T01:04:14.676Z,97.50
2023-09-22T01:06:44.482Z,97.22
2023-09-22T01:09:11.267Z,97.38
2023-09-22T01:11:38.343Z,97.14
2023-09-22T01:14:05.146Z,97.12
2023-09-22T01:16:33.015Z,97.24
2023-09-22T01:19:00.576Z,97.43
2023-09-22T01:21:32.198Z,97.17
2023-09-22T01:23:59.717Z,97.44
2023-09-22T01:26:26.640Z,97.34
2023-09-22T01:28:53.849Z,97.50
2023-09-22T01:31:20.675Z,97.70
2023-09-22T01:33:47.985Z,97.44
2023-09-22T01:36:15.630Z,97.56
2023-09-22T01:38:43.295Z,97.75
2023-09-22T01:41:12.759Z,97.30
2023-09-22T01:43:40.316Z,97.21
2023-09-22T01:46:08.510Z,97.46
2023-09-22T01:48:35.500Z,97.51
2023-09-22T01:51:06.069Z,97.81
2023-09-22T01:53:32.822Z,97.51
2023-09-22T01:55:59.595Z,97.68
2023-09-22T01:58:26.403Z,97.49
2023-09-22T02:00:53.388Z,97.44
2023-09-22T02:03:20.577Z,97.09
2023-09-22T02:05:47.807Z,96.95
2023-09-22T02:08:14.644Z,96.80
2023-09-22T02:10:41.977Z,96.63
2023-09-22T02:13:10.686Z,96.14
2023-09-22T02:15:38.253Z,95.96
2023-09-22T02:18:05.766Z,95.25
2023-09-22T02:20:32.848Z,95.20
2023-09-22T02:23:00.293Z,95.32
2023-09-22T02:25:27.647Z,94.96
2023-09-22T02:27:57.002Z,94.73
2023-09-22T02:30:24.664Z,94.82
2023-09-22T02:32:53.609Z,94.35
2023-09-22T02:35:22.866Z,94.27
2023-09-22T02:37:50.755Z,94.23
2023-09-22T02:40:18.648Z,93.98
2023-09-22T02:42:45.676Z,93.98
2023-09-22T02:45:13.544Z,93.73
2023-09-22T02:47:42.237Z,93.59
2023-09-22T02:50:11.828Z,93.51
2023-09-22T02:52:40.730Z,93.67
2023-09-22T02:55:12.467Z,93.80
2023-09-22T02:57:39.908Z,93.59
2023-09-22T03:00:16.634Z,93.69
2023-09-22T03:02:43.884Z,93.58
2023-09-22T03:05:11.492Z,93.66
2023-09-22T03:07:42.563Z,93.31
2023-09-22T03:10:11.821Z,93.32
2023-09-22T03:12:40.019Z,93.06
2023-09-22T03:15:11.119Z,93.09
2023-09-22T03:17:38.840Z,92.72
2023-09-22T03:20:14.077Z,92.67
2023-09-22T03:22:41.581Z,92.42
2023-09-22T03:25:12.537Z,92.24
2023-09-22T03:27:41.085Z,91.97
2023-09-22T03:30:11.191Z,91.76
2023-09-22T03:32:40.667Z,91.77
2023-09-22T03:35:10.101Z,91.73
2023-09-22T03:37:39.355Z,91.39
2023-09-22T03:40:11.771Z,91.37
2023-09-22T03:42:38.747Z,91.37
2023-09-22T03:45:07.952Z,91.20
2023-09-22T03:47:34.997Z,91.51
2023-09-22T03:50:02.328Z,91.74
2023-09-22T03:52:29.782Z,91.80
2023-09-22T03:54:56.628Z,91.39
2023-09-22T03:57:24.063Z,91.45
2023-09-22T03:59:51.083Z,91.38
2023-09-22T04:02:17.908Z,91.20
2023-09-22T04:04:44.647Z,91.16
2023-09-22T04:07:11.416Z,91.26
2023-09-22T04:09:38.150Z,91.03
2023-09-22T04:12:05.093Z,91.19
2023-09-22T04:14:31.997Z,91.55
2023-09-22T04:16:59.202Z,91.42
2023-09-22T04:19:25.980Z,91.45
2023-09-22T04:21:53.938Z,91.64
2023-09-22T04:24:21.775Z,91.68
2023-09-22T04:26:50.508Z,91.92
2023-09-22T04:29:18.517Z,91.86
2023-09-22T04:31:46.841Z,91.97
2023-09-22T04:34:13.833Z,91.88
2023-09-22T04:36:41.397Z,92.67
2023-09-22T04:39:09.773Z,94.22
2023-09-22T04:41:36.636Z,91.76
2023-09-22T04:44:03.675Z,92.03
2023-09-22T04:46:30.540Z,91.41
2023-09-22T04:48:57.366Z,90.45
2023-09-22T04:51:24.148Z,89.61
2023-09-22T04:53:51.595Z,89.77
2023-09-22T04:56:18.359Z,90.08
2023-09-22T04:58:46.077Z,89.39
2023-09-22T05:01:13.175Z,89.44
2023-09-22T05:03:40.786Z,89.08
2023-09-22T05:06:10.713Z,89.11
2023-09-22T05:08:40.177Z,88.27
2023-09-22T05:11:08.689Z,87.66
2023-09-22T05:13:37.281Z,87.15
2023-09-22T05:16:13.832Z,87.46
2023-09-22T05:18:41.119Z,87.40
2023-09-22T05:21:10.837Z,86.60
2023-09-22T05:23:37.933Z,86.45
2023-09-22T05:29:39.911Z,85.87
2023-09-22T05:32:06.641Z,86.28
2023-09-22T05:34:34.712Z,87.00
2023-09-22T05:37:04.624Z,87.75
2023-09-22T05:39:31.453Z,87.04
2023-09-22T05:41:58.214Z,86.62
2023-09-22T05:44:24.995Z,86.45
2023-09-22T05:46:54.002Z,87.31
2023-09-22T05:49:21.781Z,86.86
2023-09-22T05:51:50.333Z,87.10
2023-09-22T05:54:17.167Z,86.93
2023-09-22T05:56:43.888Z,86.64
2023-09-22T05:59:11.130Z,86.40
2023-09-22T06:01:38.705Z,86.35
2023-09-22T06:04:05.925Z,86.15
2023-09-22T06:06:33.701Z,84.94
2023-09-22T06:09:00.626Z,85.04
2023-09-22T06:11:27.726Z,85.16
2023-09-22T06:13:54.706Z,84.74
2023-09-22T06:16:21.531Z,84.92
2023-09-22T06:18:48.612Z,84.78
2023-09-22T06:21:15.534Z,84.38
2023-09-22T06:23:42.315Z,84.68
2023-09-22T06:26:11.998Z,84.26
2023-09-22T06:28:42.456Z,83.49
2023-09-22T06:31:09.507Z,83.18
2023-09-22T06:33:36.561Z,83.17
2023-09-22T06:36:05.725Z,82.94
2023-09-22T06:38:36.403Z,82.81
2023-09-22T06:41:04.744Z,83.17
2023-09-22T06:43:32.529Z,82.93
2023-09-22T06:46:04.849Z,82.88
2023-09-22T06:48:31.880Z,82.93
2023-09-22T06:51:00.033Z,82.76
2023-09-22T06:53:28.233Z,82.76
2023-09-22T06:56:08.306Z,82.58
2023-09-22T06:58:37.243Z,81.89
2023-09-22T07:01:18.360Z,81.86
2023-09-22T07:03:46.809Z,81.08
2023-09-22T07:06:16.862Z,81.28
2023-09-22T07:08:47.238Z,80.18
2023-09-22T07:11:14.798Z,79.91
2023-09-22T07:13:42.552Z,80.08
2023-09-22T07:16:10.306Z,80.71
2023-09-22T07:18:37.551Z,79.72
2023-09-22T07:21:04.432Z,79.06
2023-09-22T07:23:34.114Z,79.27
2023-09-22T07:26:10.772Z,79.31
2023-09-22T07:28:37.632Z,80.10
2023-09-22T07:31:12.755Z,79.56
2023-09-22T07:33:40.424Z,80.02
2023-09-22T07:36:08.800Z,79.45
2023-09-22T07:38:36.027Z,79.32
2023-09-22T07:41:03.621Z,78.22
2023-09-22T07:43:31.193Z,77.57
2023-09-22T07:45:58.920Z,77.18
2023-09-22T07:48:26.372Z,76.28
2023-09-22T07:50:54.214Z,76.35
2023-09-22T07:53:21.949Z,75.86
2023-09-22T07:55:49.373Z,75.17
2023-09-22T07:58:16.379Z,74.99
2023-09-22T08:00:48.105Z,75.48
2023-09-22T08:03:15.747Z,73.46
2023-09-22T08:05:42.622Z,72.12
2023-09-22T08:08:11.692Z,72.54
2023-09-22T08:10:40.043Z,73.24
2023-09-22T08:13:09.035Z,72.86
2023-09-22T08:15:39.413Z,72.44
2023-09-22T08:18:07.491Z,72.94
2023-09-22T08:20:36.027Z,73.66
2023-09-22T08:23:03.004Z,73.77
2023-09-22T08:25:30.115Z,74.57
2023-09-22T08:27:57.864Z,74.77
2023-09-22T08:30:25.390Z,74.62
2023-09-22T08:32:52.382Z,74.64
2023-09-22T08:35:19.263Z,74.48
2023-09-22T08:37:46.161Z,74.38
2023-09-22T08:40:16.710Z,73.84
2023-09-22T08:42:45.649Z,73.32
2023-09-22T08:45:14.355Z,72.53
2023-09-22T08:47:42.340Z,72.71
2023-09-22T08:50:11.335Z,72.07
2023-09-22T08:52:40.033Z,71.02
2023-09-22T08:55:09.585Z,71.27
2023-09-22T08:57:37.229Z,70.97
2023-09-22T09:00:12.186Z,70.98
2023-09-22T09:02:40.721Z,70.77
2023-09-22T09:05:28.592Z,70.77
2023-09-22T09:07:57.165Z,70.63
2023-09-22T09:10:34.790Z,70.98
2023-09-22T09:13:03.186Z,69.98
2023-09-22T09:15:51.294Z,68.02
2023-09-22T09:18:21.060Z,67.11
2023-09-22T09:20:50.314Z,66.40
2023-09-22T09:23:21.765Z,67.69
2023-09-22T09:25:57.802Z,67.52
2023-09-22T09:28:25.534Z,67.50
2023-09-22T09:31:00.078Z,68.94
2023-09-22T09:33:33.154Z,68.89
2023-09-22T09:36:00.390Z,69.57
2023-09-22T09:38:28.849Z,69.21
2023-09-22T09:40:59.910Z,68.88
2023-09-22T09:43:27.043Z,69.40
2023-09-22T09:45:59.184Z,70.02
2023-09-22T09:48:27.804Z,69.18
2023-09-22T09:50:58.937Z,68.31
2023-09-22T09:53:44.082Z,67.62
2023-09-22T09:56:18.891Z,68.97
2023-09-22T09:58:49.806Z,68.61
2023-09-22T10:01:19.250Z,67.38
2023-09-22T10:03:47.026Z,67.63
2023-09-22T10:06:17.040Z,67.96
2023-09-22T10:08:43.904Z,67.51
2023-09-22T10:11:13.746Z,64.52
2023-09-22T10:13:40.959Z,63.65
2023-09-22T10:16:10.502Z,64.20
2023-09-22T10:18:49.654Z,63.46
2023-09-22T10:21:31.963Z,64.22
2023-09-22T10:24:27.535Z,63.05
2023-09-22T10:26:57.376Z,63.25
2023-09-22T10:29:36.661Z,63.74
2023-09-22T10:32:19.385Z,62.59
2023-09-22T10:34:51.121Z,62.19
2023-09-22T10:37:19.547Z,61.08
2023-09-22T10:39:51.137Z,61.16
2023-09-22T10:42:18.845Z,61.49
2023-09-22T10:45:06.017Z,61.31
2023-09-22T10:47:51.356Z,62.50
2023-09-22T10:50:23.836Z,61.84
2023-09-22T10:53:04.411Z,61.02
2023-09-22T10:55:39.117Z,59.98
2023-09-22T10:58:07.508Z,59.91
2023-09-22T11:00:41.118Z,59.85
2023-09-22T11:03:13.043Z,58.55
2023-09-22T11:05:41.644Z,58.09
2023-09-22T11:08:16.159Z,56.71
2023-09-22T11:10:47.551Z,56.23
2023-09-22T11:13:16.094Z,56.59
2023-09-22T11:16:01.552Z,57.13
2023-09-22T11:18:29.357Z,57.42
2023-09-22T11:21:14.746Z,58.04
2023-09-22T11:23:42.645Z,58.13
2023-09-22T11:26:12.158Z,57.31
2023-09-22T11:28:47.482Z,55.36
2023-09-22T11:31:21.455Z,52.82
2023-09-22T11:34:00.857Z,50.47
2023-09-22T11:36:27.733Z,50.97
2023-09-22T11:38:57.449Z,51.08
2023-09-22T11:41:24.734Z,51.71
2023-09-22T11:43:56.395Z,51.63
2023-09-22T11:46:29.963Z,52.40
2023-09-22T11:49:01.309Z,51.36
2023-09-22T11:51:53.026Z,51.31
2023-09-22T11:54:21.375Z,51.38
2023-09-22T11:56:49.054Z,51.93
2023-09-22T11:59:21.317Z,51.79
2023-09-22T12:01:50.174Z,52.04
2023-09-22T12:04:20.180Z,51.31
2023-09-22T12:06:47.248Z,49.50
2023-09-22T12:09:14.437Z,48.49
2023-09-22T12:11:43.176Z,48.23
2023-09-22T12:14:11.521Z,48.82
2023-09-22T12:16:42.022Z,46.87
2023-09-22T12:19:09.331Z,44.73
2023-09-22T12:21:36.997Z,44.23
2023-09-22T12:24:04.179Z,43.94
2023-09-22T12:26:32.430Z,43.13
2023-09-22T12:28:59.477Z,42.38
2023-09-22T12:31:27.917Z,41.65
2023-09-22T12:33:55.997Z,42.03
2023-09-22T12:36:22.918Z,41.44
2023-09-22T12:38:49.925Z,42.11
2023-09-22T12:41:16.748Z,42.24
2023-09-22T12:43:43.795Z,43.85
2023-09-22T12:46:13.260Z,44.27
2023-09-22T12:48:42.066Z,44.75
2023-09-22T12:51:12.819Z,45.47
2023-09-22T12:53:40.759Z,46.21
2023-09-22T12:56:08.222Z,46.44
2023-09-22T12:58:36.415Z,47.74
2023-09-22T13:01:07.958Z,47.92
2023-09-22T13:03:36.239Z,49.06
2023-09-22T13:06:05.058Z,49.53
2023-09-22T13:08:36.070Z,49.85
2023-09-22T13:11:04.283Z,50.88
2023-09-22T13:13:32.153Z,51.01
2023-09-22T13:15:59.832Z,50.76
2023-09-22T13:18:26.950Z,51.20
2023-09-22T13:20:53.759Z,51.71
2023-09-22T13:23:20.991Z,50.88
2023-09-22T13:25:48.168Z,49.21
2023-09-22T13:28:17.055Z,48.54
2023-09-22T13:30:53.900Z,46.79
2023-09-22T13:33:21.932Z,43.11
2023-09-22T13:35:52.270Z,44.67
2023-09-22T13:38:19.853Z,44.93
2023-09-22T13:40:48.681Z,44.97
2023-09-22T13:43:16.618Z,44.87
2023-09-22T13:45:43.932Z,45.76
2023-09-22T13:48:11.080Z,46.68
2023-09-22T13:50:42.342Z,47.10
2023-09-22T13:53:10.043Z,47.97
2023-09-22T13:55:39.273Z,48.61
2023-09-22T13:58:06.253Z,49.70
2023-09-22T14:00:33.034Z,50.38
2023-09-22T14:03:00.938Z,50.74
2023-09-22T14:05:29.482Z,49.89
2023-09-22T14:07:57.022Z,49.80
2023-09-22T14:10:25.802Z,49.61
2023-09-22T14:12:53.045Z,49.18
2023-09-22T14:15:21.096Z,50.17
2023-09-22T14:17:50.433Z,47.02
2023-09-22T14:20:18.866Z,46.04
2023-09-22T14:22:45.873Z,44.77
2023-09-22T14:25:13.013Z,43.48
2023-09-22T14:27:40.697Z,41.54
2023-09-22T14:30:08.840Z,40.48
2023-09-22T14:32:36.756Z,40.17
2023-09-22T14:35:03.988Z,39.64
2023-09-22T14:37:31.299Z,40.43
2023-09-22T14:39:58.356Z,39.68
2023-09-22T14:42:25.563Z,39.61
2023-09-22T14:44:52.332Z,39.05
2023-09-22T14:47:19.741Z,39.51
2023-09-22T14:49:46.741Z,39.72
2023-09-22T14:52:13.631Z,39.99
2023-09-22T14:54:41.178Z,40.88
2023-09-22T14:57:07.875Z,40.77
2023-09-22T14:59:34.649Z,42.27
2023-09-22T15:02:01.969Z,43.33
2023-09-22T15:04:28.771Z,43.79
2023-09-22T15:06:55.652Z,43.75
2023-09-22T15:09:22.364Z,43.20
2023-09-22T15:11:49.107Z,40.72
2023-09-22T15:14:18.978Z,39.99
2023-09-22T15:16:45.741Z,39.20
2023-09-22T15:19:12.945Z,38.07
2023-09-22T15:21:39.830Z,37.49
2023-09-22T15:24:07.476Z,37.02
2023-09-22T15:26:34.273Z,37.01
2023-09-22T15:29:01.063Z,35.78
2023-09-22T15:31:27.910Z,34.55
2023-09-22T15:33:54.720Z,34.36
2023-09-22T15:36:21.551Z,33.96
2023-09-22T15:38:48.474Z,33.62
2023-09-22T15:41:16.535Z,32.97
2023-09-22T15:43:43.448Z,32.82
2023-09-22T15:46:11.244Z,32.50
2023-09-22T15:48:38.216Z,32.26
2023-09-22T15:51:05.545Z,31.92
2023-09-22T15:53:34.821Z,32.19
2023-09-22T15:56:01.916Z,32.50
2023-09-22T15:58:29.429Z,32.32
2023-09-22T16:00:56.401Z,32.08
2023-09-22T16:03:23.885Z,32.05
2023-09-22T16:05:51.339Z,32.17
2023-09-22T16:08:20.168Z,32.42
2023-09-22T16:10:47.158Z,33.59
2023-09-22T16:15:45.817Z,35.55
2023-09-22T16:18:12.775Z,36.66
2023-09-22T16:20:40.232Z,38.42
2023-09-22T16:23:06.963Z,39.47
2023-09-22T16:25:33.872Z,41.06
2023-09-22T16:28:00.994Z,41.54
2023-09-22T16:30:28.040Z,42.53
2023-09-22T16:32:55.007Z,43.37
2023-09-22T16:35:21.969Z,44.29
2023-09-22T16:37:49.055Z,45.36
2023-09-22T16:40:16.148Z,45.80
2023-09-22T16:42:42.918Z,46.10
2023-09-22T16:45:10.267Z,46.84
2023-09-22T16:47:37.054Z,47.46
2023-09-22T16:50:05.488Z,48.47
2023-09-22T16:52:35.356Z,47.73
2023-09-22T16:55:02.478Z,47.02
2023-09-22T16:57:29.325Z,46.72
2023-09-22T16:59:56.174Z,46.35
2023-09-22T17:02:24.283Z,46.40
2023-09-22T17:04:51.618Z,46.20
2023-09-22T17:07:18.588Z,46.62
2023-09-22T17:09:45.324Z,47.56
2023-09-22T17:12:12.144Z,47.87
2023-09-22T17:14:38.946Z,48.91
2023-09-22T17:17:05.738Z,49.59
2023-09-22T17:19:32.688Z,50.56
2023-09-22T17:21:59.950Z,51.13
2023-09-22T17:24:27.142Z,51.85
2023-09-22T17:26:53.946Z,53.16
2023-09-22T17:29:20.736Z,52.98
2023-09-22T17:31:47.876Z,54.01
2023-09-22T17:34:14.784Z,54.51
2023-09-22T17:36:41.615Z,55.60
2023-09-22T17:39:08.368Z,56.27
2023-09-22T17:41:35.123Z,56.98
2023-09-22T17:44:01.989Z,57.66
2023-09-22T17:46:29.095Z,58.34
2023-09-22T17:48:56.182Z,58.99
2023-09-22T17:51:23.793Z,60.20
2023-09-22T17:53:50.510Z,60.00
2023-09-22T17:56:17.317Z,60.73
2023-09-22T17:58:44.344Z,61.73
2023-09-22T18:01:12.995Z,61.88
2023-09-22T18:03:46.078Z,63.03
2023-09-22T18:06:12.927Z,62.86
2023-09-22T18:08:39.647Z,63.25
2023-09-22T18:11:06.646Z,63.72
2023-09-22T18:13:33.661Z,64.13
2023-09-22T18:16:06.581Z,64.72
2023-09-22T18:18:33.556Z,64.98
2023-09-22T18:21:00.521Z,65.67
2023-09-22T18:23:27.414Z,66.15
2023-09-22T18:26:08.258Z,66.28
2023-09-22T18:28:36.102Z,66.72
2023-09-22T18:31:04.416Z,66.91
2023-09-22T18:33:32.130Z,67.44
2023-09-22T18:36:00.796Z,67.54
2023-09-22T18:38:27.828Z,67.61
2023-09-22T18:40:54.766Z,68.12
2023-09-22T18:43:24.050Z,68.33
2023-09-22T18:45:53.248Z,68.54
2023-09-22T18:48:20.444Z,69.00
2023-09-22T18:50:51.054Z,69.24
2023-09-22T18:53:19.394Z,69.87
2023-09-22T18:55:52.701Z,69.84
2023-09-22T18:58:20.405Z,70.21
2023-09-22T19:00:47.913Z,70.99
2023-09-22T19:03:15.181Z,71.26
2023-09-22T19:05:43.325Z,71.38
2023-09-22T19:08:10.156Z,71.90
2023-09-22T19:10:40.727Z,72.17
2023-09-22T19:13:10.399Z,72.51
2023-09-22T19:15:37.483Z,73.09
2023-09-22T19:18:04.805Z,74.02
2023-09-22T19:20:31.736Z,74.31
2023-09-22T19:22:59.202Z,74.77
2023-09-22T19:25:31.719Z,74.79
2023-09-22T19:28:01.483Z,75.39
2023-09-22T19:30:28.520Z,75.87
2023-09-22T19:32:55.778Z,76.43
2023-09-22T19:35:23.160Z,76.97
2023-09-22T19:37:52.796Z,77.42
2023-09-22T19:40:19.841Z,77.68
2023-09-22T19:42:46.622Z,78.15
2023-09-22T19:45:13.423Z,78.78
2023-09-22T19:47:41.122Z,79.02
2023-09-22T19:50:14.090Z,79.25
2023-09-22T19:52:43.157Z,79.28
2023-09-22T19:55:10.671Z,79.31
2023-09-22T19:57:40.384Z,79.55
2023-09-22T20:00:12.427Z,79.69
2023-09-22T20:02:40.758Z,79.75
2023-09-22T20:05:14.804Z,80.45
2023-09-22T20:07:42.600Z,80.31
2023-09-22T20:10:11.050Z,80.29
2023-09-22T20:12:37.820Z,80.57
2023-09-22T20:15:05.037Z,80.62
2023-09-22T20:17:32.078Z,80.97
2023-09-22T20:19:59.180Z,80.82
2023-09-22T20:22:28.871Z,81.08
2023-09-22T20:24:55.704Z,81.14
2023-09-22T20:27:25.812Z,81.13
2023-09-22T20:29:55.663Z,81.32
2023-09-22T20:32:26.325Z,81.48
2023-09-22T20:34:54.775Z,81.78
2023-09-22T20:37:22.167Z,81.69
2023-09-22T20:39:55.898Z,81.75
2023-09-22T20:42:23.049Z,81.78
2023-09-22T20:44:52.501Z,81.81
2023-09-22T20:47:21.192Z,81.75
2023-09-22T20:49:49.438Z,81.91
2023-09-22T20:52:16.607Z,81.88
2023-09-22T20:54:43.502Z,82.15
2023-09-22T20:57:12.613Z,82.19
2023-09-22T20:59:40.367Z,82.34
2023-09-22T21:02:11.862Z,82.64
2023-09-22T21:04:38.934Z,82.68
2023-09-22T21:07:07.696Z,82.74
2023-09-22T21:09:34.534Z,82.90
2023-09-22T21:12:01.296Z,82.89
2023-09-22T21:14:28.016Z,83.09
2023-09-22T21:16:54.832Z,82.99
2023-09-22T21:19:23.421Z,83.08
2023-09-22T21:21:52.405Z,82.83
2023-09-22T21:24:19.245Z,82.33
2023-09-22T21:26:46.008Z,82.42
2023-09-22T21:29:18.203Z,82.00
2023-09-22T21:31:45.793Z,81.74
2023-09-22T21:34:12.638Z,81.45
2023-09-22T21:36:39.368Z,80.93
2023-09-22T21:39:06.155Z,80.75
2023-09-22T21:41:33.459Z,80.34
2023-09-22T21:44:00.266Z,79.92
2023-09-22T21:46:29.987Z,79.85
2023-09-22T21:48:56.833Z,79.34
2023-09-22T21:51:24.494Z,79.23
2023-09-22T21:53:51.811Z,78.90
2023-09-22T21:56:18.922Z,78.91
2023-09-22T21:58:46.110Z,78.68
2023-09-22T22:01:14.203Z,78.46
2023-09-22T22:03:44.642Z,78.40
2023-09-22T22:06:12.125Z,78.02
2023-09-22T22:08:42.318Z,77.65
2023-09-22T22:11:10.001Z,77.63
2023-09-22T22:13:40.403Z,77.63
2023-09-22T22:16:10.795Z,77.86
2023-09-22T22:18:38.545Z,77.51
2023-09-22T22:21:10.859Z,77.46
2023-09-22T22:23:40.015Z,77.37
2023-09-22T22:26:11.184Z,77.53
2023-09-22T22:28:42.372Z,77.68
2023-09-22T22:31:09.405Z,77.59
2023-09-22T22:33:36.996Z,77.43
2023-09-22T22:36:05.230Z,77.49
2023-09-22T22:38:32.066Z,77.31
2023-09-22T22:41:00.190Z,76.99
2023-09-22T22:43:27.300Z,76.92
2023-09-22T22:45:55.804Z,77.21
2023-09-22T22:48:22.864Z,77.13
2023-09-22T22:50:50.116Z,77.04
2023-09-22T22:53:17.268Z,77.19
2023-09-22T22:55:44.341Z,77.27
2023-09-22T22:58:19.581Z,77.18
2023-09-22T23:00:50.084Z,76.83
2023-09-22T23:03:17.588Z,76.89
2023-09-22T23:05:44.922Z,76.79
2023-09-22T23:08:13.230Z,76.53
2023-09-22T23:10:56.130Z,77.02
2023-09-22T23:13:30.286Z,77.06
2023-09-22T23:15:59.695Z,77.05
2023-09-22T23:18:27.413Z,77.20
2023-09-22T23:20:55.804Z,77.33
2023-09-22T23:23:22.759Z,77.35
2023-09-22T23:25:49.861Z,77.67
2023-09-22T23:28:16.638Z,77.56
2023-09-22T23:30:43.554Z,77.74
2023-09-22T23:33:10.427Z,77.91
2023-09-22T23:35:39.702Z,77.96
2023-09-22T23:38:08.625Z,78.16
2023-09-22T23:40:41.644Z,78.51
2023-09-22T23:43:11.885Z,79.10
2023-09-22T23:45:40.290Z,79.15
2023-09-22T23:48:07.570Z,79.51
2023-09-22T23:50:34.342Z,79.56
2023-09-22T23:53:01.132Z,79.98
2023-09-22T23:55:29.829Z,80.11
2023-09-22T23:57:57.238Z,80.33
